createdAt,value
2023-04-14T00:00:02.195Z,12.70
2023-04-14T00:05:11.911Z,11.60
2023-04-14T00:07:40.593Z,9.70
2023-04-14T00:10:09.903Z,11.60
2023-04-14T00:12:38.633Z,10.30
2023-04-14T00:15:07.350Z,10.50
2023-04-14T00:17:37.786Z,10.90
2023-04-14T00:20:06.838Z,12.60
2023-04-14T00:22:34.851Z,11.30
2023-04-14T00:25:04.060Z,11.60
2023-04-14T00:27:32.707Z,14.90
2023-04-14T00:30:05.861Z,11.70
2023-04-14T00:32:40.541Z,10.10
2023-04-14T00:35:08.888Z,13.30
2023-04-14T00:37:37.671Z,11.30
2023-04-14T00:40:09.207Z,12.90
2023-04-14T00:42:47.052Z,13.50
2023-04-14T00:45:15.206Z,13.80
2023-04-14T00:47:47.190Z,16.60
2023-04-14T00:50:17.874Z,17.50
2023-04-14T00:52:47.087Z,11.40
2023-04-14T00:55:16.213Z,15.10
2023-04-14T00:57:44.313Z,11.10
2023-04-14T01:00:14.185Z,15.00
2023-04-14T01:02:46.622Z,13.60
2023-04-14T01:05:15.965Z,14.10
2023-04-14T01:07:44.512Z,16.10
2023-04-14T01:10:12.728Z,11.50
2023-04-14T01:13:00.457Z,15.40
2023-04-14T01:15:36.113Z,14.60
2023-04-14T01:18:13.383Z,14.80
2023-04-14T01:20:45.031Z,14.40
2023-04-14T01:23:18.029Z,15.40
2023-04-14T01:26:08.734Z,20.20
2023-04-14T01:28:59.216Z,15.40
2023-04-14T01:32:01.837Z,14.70
2023-04-14T01:34:45.913Z,15.40
2023-04-14T01:37:18.122Z,18.20
2023-04-14T01:39:48.602Z,20.40
2023-04-14T01:42:18.898Z,19.70
2023-04-14T01:44:46.965Z,18.90
2023-04-14T01:47:16.107Z,12.90
2023-04-14T01:49:44.071Z,14.50
2023-04-14T01:52:13.583Z,15.20
2023-04-14T01:54:42.511Z,16.80
2023-04-14T01:57:11.243Z,16.10
2023-04-14T01:59:40.640Z,19.70
2023-04-14T02:02:11.565Z,17.60
2023-04-14T02:04:39.826Z,19.30
2023-04-14T02:07:08.552Z,20.60
2023-04-14T02:09:36.570Z,18.80
2023-04-14T02:12:04.777Z,17.90
2023-04-14T02:14:32.809Z,20.00
2023-04-14T02:17:02.963Z,21.90
2023-04-14T02:19:31.493Z,19.60
2023-04-14T02:21:59.498Z,18.90
2023-04-14T02:24:28.693Z,20.60
2023-04-14T02:27:05.553Z,18.80
2023-04-14T02:29:34.088Z,23.80
2023-04-14T02:32:06.358Z,25.40
2023-04-14T02:34:38.053Z,18.80
2023-04-14T02:37:10.184Z,19.70
2023-04-14T02:39:42.876Z,20.70
2023-04-14T02:42:16.730Z,18.80
2023-04-14T02:44:49.239Z,18.30
2023-04-14T02:47:27.114Z,22.00
2023-04-14T02:49:59.467Z,23.10
2023-04-14T02:52:29.374Z,23.00
2023-04-14T02:55:00.727Z,21.80
2023-04-14T02:57:29.752Z,22.30
2023-04-14T02:59:58.697Z,22.70
2023-04-14T03:02:29.965Z,20.80
2023-04-14T03:05:06.668Z,22.80
2023-04-14T03:07:42.362Z,23.50
2023-04-14T03:10:11.962Z,23.50
2023-04-14T03:12:42.886Z,28.10
2023-04-14T03:15:12.109Z,27.70
2023-04-14T03:17:40.474Z,26.90
2023-04-14T03:20:13.754Z,30.90
2023-04-14T03:22:42.002Z,25.80
2023-04-14T03:25:12.558Z,26.00
2023-04-14T03:27:42.339Z,24.60
2023-04-14T03:30:10.817Z,24.60
2023-04-14T03:32:42.238Z,23.50
2023-04-14T03:35:14.379Z,23.60
2023-04-14T03:37:42.778Z,27.90
2023-04-14T03:40:11.887Z,24.30
2023-04-14T03:42:44.853Z,26.60
2023-04-14T03:45:13.541Z,25.80
2023-04-14T03:47:42.659Z,29.00
2023-04-14T03:50:10.769Z,25.60
2023-04-14T03:52:39.800Z,29.10
2023-04-14T03:55:08.560Z,31.00
2023-04-14T03:57:38.423Z,40.40
2023-04-14T04:00:09.302Z,31.70
2023-04-14T04:02:46.316Z,28.10
2023-04-14T04:05:14.614Z,29.80
2023-04-14T04:07:44.511Z,28.60
2023-04-14T04:10:12.961Z,26.00
2023-04-14T04:12:44.064Z,30.20
2023-04-14T04:15:22.164Z,25.30
2023-04-14T04:17:50.459Z,28.20
2023-04-14T04:20:18.729Z,27.50
2023-04-14T04:22:47.915Z,30.60
2023-04-14T04:25:16.558Z,27.30
2023-04-14T04:27:49.406Z,33.00
2023-04-14T04:30:18.659Z,29.20
2023-04-14T04:32:47.719Z,27.20
2023-04-14T04:35:16.175Z,28.80
2023-04-14T04:37:45.662Z,31.70
2023-04-14T04:40:13.887Z,27.00
2023-04-14T04:42:42.772Z,30.50
2023-04-14T04:47:42.470Z,32.40
2023-04-14T04:50:10.427Z,29.70
2023-04-14T04:52:38.645Z,28.20
2023-04-14T04:55:07.382Z,29.60
2023-04-14T04:57:36.590Z,29.70
2023-04-14T05:00:05.473Z,29.80
2023-04-14T05:02:36.530Z,27.30
2023-04-14T05:05:05.527Z,29.60
2023-04-14T05:07:33.713Z,28.40
2023-04-14T05:10:05.631Z,26.20
2023-04-14T05:12:35.717Z,26.30
2023-04-14T05:15:03.964Z,25.50
2023-04-14T05:17:32.219Z,27.70
2023-04-14T05:20:02.127Z,28.30
2023-04-14T05:22:30.622Z,30.30
2023-04-14T05:24:58.714Z,27.00
2023-04-14T05:27:26.986Z,25.90
2023-04-14T05:29:55.480Z,30.10
2023-04-14T05:32:23.480Z,29.10
2023-04-14T05:34:51.513Z,29.20
2023-04-14T05:37:19.680Z,27.70
2023-04-14T05:39:47.612Z,27.30
2023-04-14T05:42:16.443Z,28.20
2023-04-14T05:44:44.463Z,26.60
2023-04-14T05:47:12.359Z,27.50
2023-04-14T05:49:40.965Z,28.90
2023-04-14T05:52:09.307Z,27.30
2023-04-14T05:54:40.893Z,27.40
2023-04-14T05:57:11.376Z,25.00
2023-04-14T05:59:39.516Z,29.30
2023-04-14T06:02:08.094Z,26.70
2023-04-14T06:04:36.310Z,30.30
2023-04-14T06:07:04.375Z,27.90
2023-04-14T06:09:34.589Z,26.90
2023-04-14T06:12:07.531Z,28.10
2023-04-14T06:14:36.219Z,27.80
2023-04-14T06:17:09.988Z,28.40
2023-04-14T06:19:38.052Z,30.70
2023-04-14T06:22:07.151Z,26.00
2023-04-14T06:24:35.333Z,30.90
2023-04-14T06:27:04.091Z,29.40
2023-04-14T06:29:33.460Z,24.40
2023-04-14T06:32:01.559Z,29.70
2023-04-14T06:34:32.812Z,25.80
2023-04-14T06:37:01.636Z,27.20
2023-04-14T06:39:30.056Z,26.60
2023-04-14T06:42:01.790Z,29.00
2023-04-14T06:44:31.889Z,31.30
2023-04-14T06:46:59.884Z,26.20
2023-04-14T06:49:33.611Z,24.10
2023-04-14T06:52:01.552Z,28.90
2023-04-14T06:54:32.000Z,28.60
2023-04-14T06:57:01.108Z,26.00
2023-04-14T06:59:29.763Z,27.20
2023-04-14T07:01:58.897Z,25.80
2023-04-14T07:04:27.009Z,24.70
2023-04-14T07:07:00.519Z,24.70
2023-04-14T07:09:29.749Z,28.60
2023-04-14T07:11:57.864Z,23.20
2023-04-14T07:14:26.073Z,23.80
2023-04-14T07:16:57.487Z,27.20
2023-04-14T07:19:25.959Z,28.30
2023-04-14T07:21:54.027Z,24.60
2023-04-14T07:24:24.055Z,22.20
2023-04-14T07:26:51.966Z,28.40
2023-04-14T07:29:19.868Z,26.60
2023-04-14T07:31:49.346Z,26.00
2023-04-14T07:34:18.188Z,25.50
2023-04-14T07:36:46.556Z,24.30
2023-04-14T07:39:14.773Z,28.30
2023-04-14T07:41:43.144Z,26.40
2023-04-14T07:44:11.286Z,25.80
2023-04-14T07:46:41.414Z,28.00
2023-04-14T07:49:09.894Z,25.20
2023-04-14T07:51:37.907Z,26.00
2023-04-14T07:54:06.277Z,24.00
2023-04-14T07:56:34.467Z,24.20
2023-04-14T07:59:02.866Z,25.00
2023-04-14T08:01:31.676Z,21.50
2023-04-14T08:03:59.957Z,21.70
2023-04-14T08:06:28.468Z,23.40
2023-04-14T08:08:56.784Z,23.50
2023-04-14T08:11:24.921Z,23.00
2023-04-14T08:13:53.159Z,21.60
2023-04-14T08:16:21.465Z,19.70
2023-04-14T08:18:50.543Z,19.40
2023-04-14T08:21:18.499Z,21.20
2023-04-14T08:23:47.671Z,22.00
2023-04-14T08:26:15.780Z,25.70
2023-04-14T08:28:44.361Z,22.40
2023-04-14T08:31:16.620Z,24.70
2023-04-14T08:33:46.156Z,27.70
2023-04-14T08:36:15.417Z,25.30
2023-04-14T08:38:46.591Z,21.20
2023-04-14T08:41:15.998Z,20.30
2023-04-14T08:43:45.160Z,22.80
2023-04-14T08:46:14.699Z,24.80
2023-04-14T08:48:43.498Z,19.10
2023-04-14T08:51:21.733Z,22.80
2023-04-14T08:53:52.734Z,22.40
2023-04-14T08:56:20.798Z,20.80
2023-04-14T08:58:48.748Z,25.10
2023-04-14T09:01:17.555Z,21.90
2023-04-14T09:03:47.510Z,24.30
2023-04-14T09:06:16.016Z,19.10
2023-04-14T09:08:48.317Z,21.40
2023-04-14T09:11:16.822Z,24.80
2023-04-14T09:13:44.845Z,22.50
2023-04-14T09:16:12.941Z,25.50
2023-04-14T09:18:43.584Z,24.40
2023-04-14T09:21:31.270Z,21.20
2023-04-14T09:24:04.210Z,21.90
2023-04-14T09:26:32.365Z,22.20
2023-04-14T09:29:01.306Z,18.80
2023-04-14T09:31:33.939Z,19.20
2023-04-14T09:34:02.411Z,17.70
2023-04-14T09:36:31.419Z,20.70
2023-04-14T09:38:59.440Z,16.80
2023-04-14T09:41:28.138Z,15.80
2023-04-14T09:43:56.200Z,17.80
2023-04-14T09:46:25.387Z,18.50
2023-04-14T09:48:55.321Z,19.60
2023-04-14T09:51:28.310Z,17.80
2023-04-14T09:54:05.384Z,19.60
2023-04-14T09:58:02.603Z,17.00
2023-04-14T10:00:29.767Z,14.40
2023-04-14T10:03:13.957Z,13.20
2023-04-14T10:05:49.231Z,15.60
2023-04-14T10:08:16.301Z,14.10
2023-04-14T10:10:42.797Z,14.60
2023-04-14T10:13:14.409Z,20.00
2023-04-14T10:15:41.820Z,14.10
2023-04-14T10:18:08.524Z,13.30
2023-04-14T10:20:37.349Z,15.60
2023-04-14T10:23:04.596Z,18.00
2023-04-14T10:25:31.360Z,13.60
2023-04-14T10:27:59.205Z,15.40
2023-04-14T10:30:26.410Z,16.10
2023-04-14T10:32:53.282Z,13.60
2023-04-14T10:35:22.564Z,19.90
2023-04-14T10:37:53.185Z,15.80
2023-04-14T10:40:21.628Z,21.30
2023-04-14T10:42:54.410Z,18.80
2023-04-14T10:45:21.516Z,20.10
2023-04-14T10:47:49.244Z,20.30
2023-04-14T10:50:17.219Z,17.60
2023-04-14T10:52:56.293Z,20.80
2023-04-14T10:55:24.405Z,15.80
2023-04-14T10:57:51.432Z,20.70
2023-04-14T11:00:22.719Z,21.80
2023-04-14T11:02:55.308Z,19.00
2023-04-14T11:05:22.131Z,15.90
2023-04-14T11:07:55.178Z,18.40
2023-04-14T11:10:22.278Z,16.10
2023-04-14T11:13:03.222Z,15.00
2023-04-14T11:15:44.058Z,14.00
2023-04-14T11:18:27.248Z,12.90
2023-04-14T11:20:54.131Z,17.60
2023-04-14T11:23:27.043Z,14.30
2023-04-14T11:25:54.680Z,15.10
2023-04-14T11:28:32.126Z,16.90
2023-04-14T11:31:00.941Z,12.90
2023-04-14T11:33:36.559Z,16.30
2023-04-14T11:36:04.919Z,17.10
2023-04-14T11:38:34.900Z,16.40
2023-04-14T11:41:01.528Z,17.00
2023-04-14T11:43:32.456Z,20.10
2023-04-14T11:46:02.526Z,17.40
2023-04-14T11:48:30.104Z,16.20
2023-04-14T11:51:02.480Z,18.40
2023-04-14T11:53:29.306Z,16.90
2023-04-14T11:55:56.901Z,19.60
2023-04-14T11:58:24.508Z,19.50
2023-04-14T12:03:36.277Z,21.30
2023-04-14T12:06:03.090Z,20.70
2023-04-14T12:08:30.428Z,20.10
2023-04-14T12:11:15.103Z,16.30
2023-04-14T12:13:42.845Z,17.30
2023-04-14T12:16:10.668Z,15.40
2023-04-14T12:18:39.979Z,21.40
2023-04-14T12:21:09.868Z,20.90
2023-04-14T12:23:40.691Z,17.90
2023-04-14T12:26:13.727Z,19.00
2023-04-14T12:28:41.161Z,16.30
2023-04-14T12:31:08.449Z,19.60
2023-04-14T12:33:35.827Z,16.90
2023-04-14T12:36:06.777Z,18.50
2023-04-14T12:38:33.541Z,15.70
2023-04-14T12:41:00.284Z,21.40
2023-04-14T12:43:27.896Z,14.80
2023-04-14T12:45:58.017Z,16.10
2023-04-14T12:48:38.323Z,17.50
2023-04-14T12:51:12.752Z,15.40
2023-04-14T12:53:41.012Z,15.40
2023-04-14T12:56:09.752Z,15.20
2023-04-14T12:58:38.474Z,17.90
2023-04-14T13:01:09.357Z,14.50
2023-04-14T13:03:41.261Z,14.80
2023-04-14T13:06:10.756Z,15.60
2023-04-14T13:08:51.634Z,21.90
2023-04-14T13:11:19.350Z,16.20
2023-04-14T13:13:54.433Z,15.90
2023-04-14T13:16:21.630Z,17.00
2023-04-14T13:18:50.921Z,17.80
2023-04-14T13:21:19.427Z,17.10
2023-04-14T13:23:46.320Z,16.90
2023-04-14T13:26:13.123Z,19.30
2023-04-14T13:28:51.050Z,30.30
2023-04-14T13:31:20.051Z,17.30
2023-04-14T13:33:46.878Z,18.90
2023-04-14T13:36:13.388Z,14.70
2023-04-14T13:38:41.191Z,16.10
2023-04-14T13:41:08.174Z,13.50
2023-04-14T13:43:35.538Z,18.70
2023-04-14T13:46:02.462Z,18.10
2023-04-14T13:48:30.533Z,14.00
2023-04-14T13:50:58.677Z,18.40
2023-04-14T13:53:25.262Z,18.10
2023-04-14T13:55:51.926Z,12.40
2023-04-14T13:58:18.770Z,15.50
2023-04-14T14:00:46.247Z,12.00
2023-04-14T14:03:32.782Z,18.00
2023-04-14T14:06:00.854Z,17.40
2023-04-14T14:08:29.622Z,17.20
2023-04-14T14:10:56.197Z,21.50
2023-04-14T14:13:25.228Z,14.70
2023-04-14T14:15:52.224Z,14.60
2023-04-14T14:18:21.976Z,16.20
2023-04-14T14:20:50.749Z,12.90
2023-04-14T14:23:17.587Z,15.20
2023-04-14T14:25:44.765Z,15.00
2023-04-14T14:28:12.046Z,15.90
2023-04-14T14:30:38.866Z,14.60
2023-04-14T14:33:06.284Z,13.10
2023-04-14T14:35:32.826Z,16.20
2023-04-14T14:38:00.810Z,21.40
2023-04-14T14:40:31.161Z,24.00
2023-04-14T14:42:57.913Z,15.60
2023-04-14T14:45:30.365Z,15.70
2023-04-14T14:47:59.304Z,17.70
2023-04-14T14:50:26.745Z,13.00
2023-04-14T14:52:56.198Z,13.40
2023-04-14T14:55:23.108Z,16.80
2023-04-14T14:57:50.658Z,10.80
2023-04-14T15:00:22.602Z,16.90
2023-04-14T15:03:09.271Z,12.70
2023-04-14T15:05:37.641Z,16.90
2023-04-14T15:08:04.332Z,17.70
2023-04-14T15:10:33.122Z,14.40
2023-04-14T15:13:00.552Z,14.80
2023-04-14T15:15:27.417Z,11.30
2023-04-14T15:17:56.256Z,12.30
2023-04-14T15:20:22.866Z,14.90
2023-04-14T15:22:50.205Z,17.10
2023-04-14T15:25:16.787Z,14.10
2023-04-14T15:27:45.045Z,15.30
2023-04-14T15:30:12.027Z,17.70
2023-04-14T15:32:39.268Z,14.70
2023-04-14T15:35:09.051Z,14.00
2023-04-14T15:37:36.399Z,15.40
2023-04-14T15:40:03.529Z,15.90
2023-04-14T15:42:31.664Z,14.00
2023-04-14T15:44:58.203Z,15.50
2023-04-14T15:47:27.634Z,15.60
2023-04-14T15:50:09.590Z,17.10
2023-04-14T15:52:39.039Z,12.40
2023-04-14T15:55:06.807Z,18.50
2023-04-14T15:57:35.038Z,28.40
2023-04-14T16:00:04.085Z,19.10
2023-04-14T16:02:41.376Z,15.50
2023-04-14T16:05:10.533Z,15.40
2023-04-14T16:07:38.786Z,21.10
2023-04-14T16:10:06.384Z,11.50
2023-04-14T16:12:34.559Z,22.10
2023-04-14T16:15:06.414Z,17.90
2023-04-14T16:17:34.432Z,16.00
2023-04-14T16:20:02.183Z,14.60
2023-04-14T16:22:42.249Z,19.30
2023-04-14T16:25:10.181Z,15.00
2023-04-14T16:27:36.794Z,15.10
2023-04-14T16:30:05.387Z,14.00
2023-04-14T16:32:34.689Z,13.30
2023-04-14T16:35:01.781Z,12.20
2023-04-14T16:37:32.543Z,14.50
2023-04-14T16:40:01.077Z,14.10
2023-04-14T16:42:27.839Z,23.00
2023-04-14T16:44:57.651Z,20.20
2023-04-14T16:47:24.939Z,18.20
2023-04-14T16:49:52.403Z,17.30
2023-04-14T16:52:20.718Z,22.20
2023-04-14T16:54:47.760Z,28.30
2023-04-14T16:57:14.847Z,27.60
2023-04-14T16:59:42.496Z,18.10
2023-04-14T17:02:09.244Z,12.60
2023-04-14T17:04:35.930Z,20.80
2023-04-14T17:07:05.635Z,20.20
2023-04-14T17:09:32.742Z,19.00
2023-04-14T17:11:59.870Z,26.80
2023-04-14T17:14:26.473Z,26.50
2023-04-14T17:16:54.192Z,17.90
2023-04-14T17:19:20.882Z,18.30
2023-04-14T17:21:48.972Z,13.40
2023-04-14T17:24:15.672Z,16.80
2023-04-14T17:26:43.668Z,14.60
2023-04-14T17:29:10.412Z,34.00
2023-04-14T17:31:38.542Z,21.30
2023-04-14T17:34:10.016Z,17.70
2023-04-14T17:36:39.512Z,17.40
2023-04-14T17:39:07.583Z,13.20
2023-04-14T17:41:34.230Z,12.00
2023-04-14T17:44:06.611Z,12.50
2023-04-14T17:46:33.855Z,14.50
2023-04-14T17:49:01.257Z,12.30
2023-04-14T17:51:29.392Z,18.30
2023-04-14T17:53:56.457Z,14.40
2023-04-14T17:56:25.035Z,12.10
2023-04-14T17:58:52.171Z,15.30
2023-04-14T18:01:18.983Z,11.00
2023-04-14T18:03:46.479Z,14.10
2023-04-14T18:06:13.538Z,12.40
2023-04-14T18:08:42.925Z,14.60
2023-04-14T18:11:10.471Z,13.70
2023-04-14T18:13:37.528Z,14.60
2023-04-14T18:16:04.569Z,14.50
2023-04-14T18:18:35.819Z,13.80
2023-04-14T18:21:02.654Z,16.30
2023-04-14T18:23:29.513Z,16.60
2023-04-14T18:28:31.089Z,16.70
2023-04-14T18:30:58.746Z,11.00
2023-04-14T18:33:27.409Z,11.50
2023-04-14T18:35:56.138Z,14.70
2023-04-14T18:38:23.416Z,12.00
2023-04-14T18:40:50.252Z,15.90
2023-04-14T18:43:17.256Z,13.90
2023-04-14T18:45:47.712Z,17.90
2023-04-14T18:48:17.412Z,12.40
2023-04-14T18:50:44.553Z,15.90
2023-04-14T18:53:11.461Z,14.10
2023-04-14T18:55:45.046Z,18.80
2023-04-14T18:58:12.593Z,15.40
2023-04-14T19:00:39.345Z,17.50
2023-04-14T19:03:08.149Z,13.70
2023-04-14T19:05:36.370Z,20.80
2023-04-14T19:08:06.879Z,15.60
2023-04-14T19:10:40.351Z,17.30
2023-04-14T19:13:12.008Z,21.30
2023-04-14T19:15:38.614Z,16.40
2023-04-14T19:18:05.336Z,18.30
2023-04-14T19:20:33.058Z,17.10
2023-04-14T19:22:59.906Z,27.90
2023-04-14T19:25:26.710Z,19.50
2023-04-14T19:27:57.292Z,33.40
2023-04-14T19:30:23.952Z,20.00
2023-04-14T19:32:52.799Z,21.10
2023-04-14T19:35:20.151Z,24.80
2023-04-14T19:37:46.678Z,21.30
2023-04-14T19:40:13.883Z,16.20
2023-04-14T19:42:41.504Z,21.60
2023-04-14T19:45:09.623Z,16.90
2023-04-14T19:47:38.198Z,17.40
2023-04-14T19:50:05.409Z,16.80
2023-04-14T19:52:32.090Z,17.60
2023-04-14T19:54:58.813Z,21.00
2023-04-14T19:57:26.878Z,20.70
2023-04-14T19:59:56.846Z,15.60
2023-04-14T20:02:23.391Z,20.20
2023-04-14T20:04:56.906Z,17.40
2023-04-14T20:07:24.063Z,19.80
2023-04-14T20:09:54.154Z,21.60
2023-04-14T20:12:20.691Z,17.50
2023-04-14T20:14:47.175Z,18.70
2023-04-14T20:17:17.873Z,19.80
2023-04-14T20:19:44.958Z,19.60
2023-04-14T20:22:12.832Z,19.40
2023-04-14T20:24:43.353Z,16.00
2023-04-14T20:27:11.125Z,15.30
2023-04-14T20:29:37.656Z,15.80
2023-04-14T20:32:07.027Z,14.70
2023-04-14T20:34:33.584Z,15.40
2023-04-14T20:37:00.900Z,13.90
2023-04-14T20:39:29.072Z,14.60
2023-04-14T20:41:55.928Z,13.00
2023-04-14T20:44:23.326Z,14.30
2023-04-14T20:46:49.992Z,9.00
2023-04-14T20:49:17.536Z,10.40
2023-04-14T20:51:46.092Z,8.80
2023-04-14T20:54:13.313Z,8.80
2023-04-14T20:56:46.653Z,8.80
2023-04-14T20:59:13.234Z,18.70
2023-04-14T21:01:42.103Z,8.70
2023-04-14T21:04:09.764Z,14.00
2023-04-14T21:06:38.000Z,10.00
2023-04-14T21:09:05.365Z,9.70
2023-04-14T21:11:32.415Z,10.10
2023-04-14T21:15:27.198Z,8.80
2023-04-14T21:16:46.226Z,11.00
2023-04-14T21:19:12.841Z,10.10
2023-04-14T21:21:42.968Z,12.70
2023-04-14T21:24:09.881Z,11.30
2023-04-14T21:26:36.623Z,9.30
2023-04-14T21:29:04.658Z,12.70
2023-04-14T21:31:31.826Z,10.20
2023-04-14T21:33:58.404Z,10.90
2023-04-14T21:36:25.305Z,10.90
2023-04-14T21:38:52.406Z,10.90
2023-04-14T21:41:19.379Z,10.70
2023-04-14T21:43:46.777Z,11.60
2023-04-14T21:46:14.290Z,9.40
2023-04-14T21:48:41.240Z,11.00
2023-04-14T21:51:08.416Z,11.30
2023-04-14T21:53:38.036Z,9.40
2023-04-14T21:56:09.439Z,9.00
2023-04-14T21:58:38.699Z,11.10
2023-04-14T22:01:06.444Z,10.50
2023-04-14T22:03:36.740Z,10.40
2023-04-14T22:06:03.747Z,12.70
2023-04-14T22:08:31.075Z,11.10
2023-04-14T22:10:57.567Z,8.60
2023-04-14T22:14:36.729Z,11.90
2023-04-14T22:17:04.779Z,12.40
2023-04-14T22:19:34.173Z,9.50
2023-04-14T22:22:02.082Z,8.30
2023-04-14T22:24:30.734Z,11.10
2023-04-14T22:26:58.790Z,11.80
2023-04-14T22:29:27.265Z,13.00
2023-04-14T22:31:58.950Z,10.10
2023-04-14T22:34:28.851Z,12.60
2023-04-14T22:36:58.050Z,9.30
2023-04-14T22:39:29.306Z,10.20
2023-04-14T22:41:57.677Z,9.90
2023-04-14T22:44:25.703Z,14.10
2023-04-14T22:46:57.200Z,12.00
2023-04-14T22:49:25.243Z,17.40
2023-04-14T22:51:53.320Z,10.50
2023-04-14T22:54:23.006Z,9.70
2023-04-14T22:56:51.057Z,13.60
2023-04-14T22:59:19.042Z,15.50
2023-04-14T23:01:48.316Z,10.60
2023-04-14T23:04:19.315Z,12.30
2023-04-14T23:06:47.908Z,11.50
2023-04-14T23:09:17.449Z,11.10
2023-04-14T23:11:45.767Z,15.90
2023-04-14T23:14:13.947Z,11.80
2023-04-14T23:16:42.612Z,12.60
2023-04-14T23:19:10.645Z,10.80
2023-04-14T23:21:39.662Z,13.50
2023-04-14T23:24:08.097Z,12.20
2023-04-14T23:26:38.334Z,12.40
2023-04-14T23:29:06.792Z,10.90
2023-04-14T23:31:34.818Z,12.90
2023-04-14T23:34:04.517Z,14.50
2023-04-14T23:36:33.296Z,12.00
2023-04-14T23:39:01.585Z,10.70
2023-04-14T23:41:31.633Z,14.40
2023-04-14T23:43:59.985Z,12.70
2023-04-14T23:46:28.425Z,11.80
2023-04-14T23:49:03.113Z,11.90
2023-04-14T23:51:46.855Z,10.40
2023-04-14T23:54:15.467Z,9.70
2023-04-14T23:56:44.415Z,9.10
2023-04-14T23:59:13.307Z,12.60
